sensor_id;sensor_type;location;lat;lon;timestamp;pressure;altitude;pressure_sealevel;temperature;humidity
57094;BME280;42970;50.996;3.706;2023-07-09T00:01:10;47179.91;;;-146.65;80.77
57094;BME280;42970;50.996;3.706;2023-07-09T00:03:38;47177.91;;;-146.65;80.16
57094;BME280;42970;50.996;3.706;2023-07-09T00:06:03;47185.91;;;-146.65;80.17
57094;BME280;42970;50.996;3.706;2023-07-09T00:08:30;47177.91;;;-146.65;80.42
57094;BME280;42970;50.996;3.706;2023-07-09T00:10:57;47183.91;;;-146.65;80.01
57094;BME280;42970;50.996;3.706;2023-07-09T00:13:24;47179.91;;;-146.65;80.06
57094;BME280;42970;50.996;3.706;2023-07-09T00:15:50;47181.91;;;-146.65;80.01
57094;BME280;42970;50.996;3.706;2023-07-09T00:18:16;47181.91;;;-146.65;79.72
57094;BME280;42970;50.996;3.706;2023-07-09T00:20:42;47183.91;;;-146.65;79.14
57094;BME280;42970;50.996;3.706;2023-07-09T00:23:09;47181.91;;;-146.65;80.82
57094;BME280;42970;50.996;3.706;2023-07-09T00:25:39;47187.91;;;-146.65;81.91
57094;BME280;42970;50.996;3.706;2023-07-09T00:28:18;47179.91;;;-146.65;84.15
57094;BME280;42970;50.996;3.706;2023-07-09T00:30:44;47179.91;;;-146.65;84.62
57094;BME280;42970;50.996;3.706;2023-07-09T00:33:12;47183.91;;;-146.65;83.46
57094;BME280;42970;50.996;3.706;2023-07-09T00:35:42;47177.91;;;-146.65;82.24
57094;BME280;42970;50.996;3.706;2023-07-09T00:38:18;47179.91;;;-146.65;80.42
57094;BME280;42970;50.996;3.706;2023-07-09T00:40:56;47185.91;;;-146.65;79.96
57094;BME280;42970;50.996;3.706;2023-07-09T00:43:21;47179.91;;;-146.65;79.65
57094;BME280;42970;50.996;3.706;2023-07-09T00:48:42;47183.91;;;-146.65;79.09
57094;BME280;42970;50.996;3.706;2023-07-09T00:51:11;47181.91;;;-146.65;78.64
57094;BME280;42970;50.996;3.706;2023-07-09T00:53:38;47185.91;;;-146.65;78.31
57094;BME280;42970;50.996;3.706;2023-07-09T00:56:14;47179.91;;;-146.65;78.33
57094;BME280;42970;50.996;3.706;2023-07-09T00:58:43;47177.91;;;-146.65;78.74
57094;BME280;42970;50.996;3.706;2023-07-09T01:01:14;47175.91;;;-146.65;79.39
57094;BME280;42970;50.996;3.706;2023-07-09T01:03:50;47185.91;;;-146.65;79.32
57094;BME280;42970;50.996;3.706;2023-07-09T01:06:21;47177.91;;;-146.65;78.90
57094;BME280;42970;50.996;3.706;2023-07-09T01:08:49;47183.91;;;-146.65;78.82
57094;BME280;42970;50.996;3.706;2023-07-09T01:11:21;47177.91;;;-146.65;79.51
57094;BME280;42970;50.996;3.706;2023-07-09T01:13:56;47179.91;;;-146.65;79.33
57094;BME280;42970;50.996;3.706;2023-07-09T01:16:25;47179.91;;;-146.65;79.29
57094;BME280;42970;50.996;3.706;2023-07-09T01:18:52;47181.91;;;-146.65;79.87
57094;BME280;42970;50.996;3.706;2023-07-09T01:21:19;47181.91;;;-146.65;80.01
57094;BME280;42970;50.996;3.706;2023-07-09T01:23:46;47185.91;;;-146.65;80.00
57094;BME280;42970;50.996;3.706;2023-07-09T01:26:13;47183.91;;;-146.65;79.63
57094;BME280;42970;50.996;3.706;2023-07-09T01:28:43;47181.91;;;-146.65;79.21
57094;BME280;42970;50.996;3.706;2023-07-09T01:31:13;47183.91;;;-146.65;79.23
57094;BME280;42970;50.996;3.706;2023-07-09T01:33:41;47179.91;;;-146.65;78.36
57094;BME280;42970;50.996;3.706;2023-07-09T01:36:12;47177.91;;;-146.65;77.59
57094;BME280;42970;50.996;3.706;2023-07-09T01:38:42;47181.91;;;-146.65;77.18
57094;BME280;42970;50.996;3.706;2023-07-09T01:41:09;47177.91;;;-146.65;76.88
57094;BME280;42970;50.996;3.706;2023-07-09T01:43:40;47183.91;;;-146.65;76.78
57094;BME280;42970;50.996;3.706;2023-07-09T01:46:07;47177.91;;;-146.65;76.55
57094;BME280;42970;50.996;3.706;2023-07-09T01:48:34;47179.91;;;-146.65;76.83
57094;BME280;42970;50.996;3.706;2023-07-09T01:51:07;47177.91;;;-146.65;76.91
57094;BME280;42970;50.996;3.706;2023-07-09T01:53:33;47177.91;;;-146.65;77.05
57094;BME280;42970;50.996;3.706;2023-07-09T01:55:59;47181.91;;;-146.65;77.52
57094;BME280;42970;50.996;3.706;2023-07-09T01:58:24;47179.91;;;-146.65;77.52
57094;BME280;42970;50.996;3.706;2023-07-09T02:00:50;47181.91;;;-146.65;77.32
57094;BME280;42970;50.996;3.706;2023-07-09T02:03:16;47177.91;;;-146.65;76.93
57094;BME280;42970;50.996;3.706;2023-07-09T02:05:43;47177.91;;;-146.65;77.21
57094;BME280;42970;50.996;3.706;2023-07-09T02:08:09;47179.91;;;-146.65;76.52
57094;BME280;42970;50.996;3.706;2023-07-09T02:10:34;47185.91;;;-146.65;76.28
57094;BME280;42970;50.996;3.706;2023-07-09T02:12:59;47183.91;;;-146.65;76.61
57094;BME280;42970;50.996;3.706;2023-07-09T02:15:25;47179.91;;;-146.65;77.26
57094;BME280;42970;50.996;3.706;2023-07-09T02:17:51;47183.91;;;-146.65;77.23
57094;BME280;42970;50.996;3.706;2023-07-09T02:20:17;47179.91;;;-146.65;77.80
57094;BME280;42970;50.996;3.706;2023-07-09T02:22:44;47177.91;;;-146.65;76.80
57094;BME280;42970;50.996;3.706;2023-07-09T02:25:10;47175.91;;;-146.65;76.73
57094;BME280;42970;50.996;3.706;2023-07-09T02:27:37;47179.91;;;-146.65;77.48
57094;BME280;42970;50.996;3.706;2023-07-09T02:30:03;47181.91;;;-146.65;78.89
57094;BME280;42970;50.996;3.706;2023-07-09T02:32:28;47175.91;;;-146.65;79.94
57094;BME280;42970;50.996;3.706;2023-07-09T02:34:54;47177.91;;;-146.65;80.04
57094;BME280;42970;50.996;3.706;2023-07-09T02:37:22;47181.91;;;-146.65;80.42
57094;BME280;42970;50.996;3.706;2023-07-09T02:39:48;47179.91;;;-146.65;80.36
57094;BME280;42970;50.996;3.706;2023-07-09T02:42:16;47179.91;;;-146.65;80.03
57094;BME280;42970;50.996;3.706;2023-07-09T02:44:42;47175.91;;;-146.65;79.60
57094;BME280;42970;50.996;3.706;2023-07-09T02:47:09;47179.91;;;-146.65;79.80
57094;BME280;42970;50.996;3.706;2023-07-09T02:49:35;47179.91;;;-146.65;79.84
57094;BME280;42970;50.996;3.706;2023-07-09T02:52:00;47177.91;;;-146.65;79.36
57094;BME280;42970;50.996;3.706;2023-07-09T02:54:26;47181.91;;;-146.65;80.06
57094;BME280;42970;50.996;3.706;2023-07-09T02:56:51;47185.91;;;-146.65;79.60
57094;BME280;42970;50.996;3.706;2023-07-09T02:59:17;47179.91;;;-146.65;79.18
57094;BME280;42970;50.996;3.706;2023-07-09T03:01:42;47181.91;;;-146.65;80.00
57094;BME280;42970;50.996;3.706;2023-07-09T03:04:08;47177.91;;;-146.65;79.78
57094;BME280;42970;50.996;3.706;2023-07-09T03:06:35;47181.91;;;-146.65;79.84
57094;BME280;42970;50.996;3.706;2023-07-09T03:09:03;47179.91;;;-146.65;79.96
57094;BME280;42970;50.996;3.706;2023-07-09T03:11:31;47183.91;;;-146.65;79.26
57094;BME280;42970;50.996;3.706;2023-07-09T03:13:57;47185.91;;;-146.65;80.21
57094;BME280;42970;50.996;3.706;2023-07-09T03:16:23;47181.91;;;-146.65;80.65
57094;BME280;42970;50.996;3.706;2023-07-09T03:18:48;47173.91;;;-146.65;80.28
57094;BME280;42970;50.996;3.706;2023-07-09T03:21:14;47177.91;;;-146.65;78.89
57094;BME280;42970;50.996;3.706;2023-07-09T03:23:40;47179.91;;;-146.65;80.76
57094;BME280;42970;50.996;3.706;2023-07-09T03:26:06;47179.91;;;-146.65;80.44
57094;BME280;42970;50.996;3.706;2023-07-09T03:28:32;47177.91;;;-146.65;82.47
57094;BME280;42970;50.996;3.706;2023-07-09T03:30:58;47181.91;;;-146.65;83.20
57094;BME280;42970;50.996;3.706;2023-07-09T03:33:23;47179.91;;;-146.65;83.76
57094;BME280;42970;50.996;3.706;2023-07-09T03:35:50;47183.91;;;-146.65;85.18
57094;BME280;42970;50.996;3.706;2023-07-09T03:38:16;47177.91;;;-146.65;85.70
57094;BME280;42970;50.996;3.706;2023-07-09T03:40:42;47179.91;;;-146.65;85.83
57094;BME280;42970;50.996;3.706;2023-07-09T03:43:08;47181.91;;;-146.65;86.29
57094;BME280;42970;50.996;3.706;2023-07-09T03:45:37;47181.91;;;-146.65;86.51
57094;BME280;42970;50.996;3.706;2023-07-09T03:48:04;47181.91;;;-146.65;86.31
57094;BME280;42970;50.996;3.706;2023-07-09T03:50:29;47181.91;;;-146.65;85.65
57094;BME280;42970;50.996;3.706;2023-07-09T03:52:55;47179.91;;;-146.65;85.71
57094;BME280;42970;50.996;3.706;2023-07-09T03:55:20;47177.91;;;-146.65;85.98
57094;BME280;42970;50.996;3.706;2023-07-09T03:57:46;47177.91;;;-146.65;85.58
57094;BME280;42970;50.996;3.706;2023-07-09T04:00:12;47179.91;;;-146.65;85.28
57094;BME280;42970;50.996;3.706;2023-07-09T04:02:39;47183.91;;;-146.65;84.96
57094;BME280;42970;50.996;3.706;2023-07-09T04:05:06;47181.91;;;-146.65;85.15
57094;BME280;42970;50.996;3.706;2023-07-09T04:07:32;47177.91;;;-146.65;84.62
57094;BME280;42970;50.996;3.706;2023-07-09T04:09:57;47179.91;;;-146.65;84.19
57094;BME280;42970;50.996;3.706;2023-07-09T04:12:22;47185.91;;;-146.65;83.16
57094;BME280;42970;50.996;3.706;2023-07-09T04:14:48;47181.91;;;-146.65;82.67
57094;BME280;42970;50.996;3.706;2023-07-09T04:17:13;47177.91;;;-146.65;82.91
57094;BME280;42970;50.996;3.706;2023-07-09T04:19:38;47177.91;;;-146.65;82.01
57094;BME280;42970;50.996;3.706;2023-07-09T04:22:04;47181.91;;;-146.65;81.34
57094;BME280;42970;50.996;3.706;2023-07-09T04:24:30;47179.91;;;-146.65;81.25
57094;BME280;42970;50.996;3.706;2023-07-09T04:26:57;47183.91;;;-146.65;81.38
57094;BME280;42970;50.996;3.706;2023-07-09T04:29:23;47175.91;;;-146.65;81.38
57094;BME280;42970;50.996;3.706;2023-07-09T04:31:49;47183.91;;;-146.65;80.91
57094;BME280;42970;50.996;3.706;2023-07-09T04:34:14;47175.91;;;-146.65;80.92
57094;BME280;42970;50.996;3.706;2023-07-09T04:36:40;47179.91;;;-146.65;81.25
57094;BME280;42970;50.996;3.706;2023-07-09T04:39:05;47179.91;;;-146.65;81.12
57094;BME280;42970;50.996;3.706;2023-07-09T04:41:31;47177.91;;;-146.65;81.38
57094;BME280;42970;50.996;3.706;2023-07-09T04:43:56;47183.91;;;-146.65;80.88
57094;BME280;42970;50.996;3.706;2023-07-09T04:46:22;47179.91;;;-146.65;80.29
57094;BME280;42970;50.996;3.706;2023-07-09T04:48:47;47177.91;;;-146.65;79.26
57094;BME280;42970;50.996;3.706;2023-07-09T04:51:13;47179.91;;;-146.65;79.32
57094;BME280;42970;50.996;3.706;2023-07-09T04:53:38;47177.91;;;-146.65;80.39
57094;BME280;42970;50.996;3.706;2023-07-09T04:56:03;47177.91;;;-146.65;79.43
57094;BME280;42970;50.996;3.706;2023-07-09T04:58:29;47181.91;;;-146.65;78.73
57094;BME280;42970;50.996;3.706;2023-07-09T05:00:58;47179.91;;;-146.65;79.60
57094;BME280;42970;50.996;3.706;2023-07-09T05:03:23;47179.91;;;-146.65;78.88
57094;BME280;42970;50.996;3.706;2023-07-09T05:05:49;47181.91;;;-146.65;78.87
57094;BME280;42970;50.996;3.706;2023-07-09T05:08:15;47175.91;;;-146.65;78.92
57094;BME280;42970;50.996;3.706;2023-07-09T05:10:47;47177.91;;;-146.65;78.95
57094;BME280;42970;50.996;3.706;2023-07-09T05:13:15;47177.91;;;-146.65;78.53
57094;BME280;42970;50.996;3.706;2023-07-09T05:15:43;47177.91;;;-146.65;78.05
57094;BME280;42970;50.996;3.706;2023-07-09T05:18:10;47183.91;;;-146.65;77.95
57094;BME280;42970;50.996;3.706;2023-07-09T05:20:35;47177.91;;;-146.65;78.02
57094;BME280;42970;50.996;3.706;2023-07-09T05:23:01;47179.91;;;-146.65;77.42
57094;BME280;42970;50.996;3.706;2023-07-09T05:25:26;47179.91;;;-146.65;76.92
57094;BME280;42970;50.996;3.706;2023-07-09T05:27:51;47177.91;;;-146.65;76.92
57094;BME280;42970;50.996;3.706;2023-07-09T05:30:18;47181.91;;;-146.65;77.87
57094;BME280;42970;50.996;3.706;2023-07-09T05:32:43;47173.91;;;-146.65;77.45
57094;BME280;42970;50.996;3.706;2023-07-09T05:35:09;47183.91;;;-146.65;77.67
57094;BME280;42970;50.996;3.706;2023-07-09T05:37:36;47179.91;;;-146.65;77.93
57094;BME280;42970;50.996;3.706;2023-07-09T05:40:02;47181.91;;;-146.65;78.87
57094;BME280;42970;50.996;3.706;2023-07-09T05:42:29;47177.91;;;-146.65;79.55
57094;BME280;42970;50.996;3.706;2023-07-09T05:44:55;47177.91;;;-146.65;79.45
57094;BME280;42970;50.996;3.706;2023-07-09T05:47:20;47185.91;;;-146.65;79.51
57094;BME280;42970;50.996;3.706;2023-07-09T05:49:45;47179.91;;;-146.65;78.74
57094;BME280;42970;50.996;3.706;2023-07-09T05:52:15;47175.91;;;-146.65;78.31
57094;BME280;42970;50.996;3.706;2023-07-09T05:54:41;47179.91;;;-146.65;78.39
57094;BME280;42970;50.996;3.706;2023-07-09T05:57:06;47183.91;;;-146.65;77.71
57094;BME280;42970;50.996;3.706;2023-07-09T05:59:32;47183.91;;;-146.65;77.95
57094;BME280;42970;50.996;3.706;2023-07-09T06:01:57;47177.91;;;-146.65;78.01
57094;BME280;42970;50.996;3.706;2023-07-09T06:04:23;47177.91;;;-146.65;77.91
57094;BME280;42970;50.996;3.706;2023-07-09T06:06:50;47183.91;;;-146.65;78.28
57094;BME280;42970;50.996;3.706;2023-07-09T06:09:16;47177.91;;;-146.65;77.82
57094;BME280;42970;50.996;3.706;2023-07-09T06:11:42;47177.91;;;-146.65;77.88
57094;BME280;42970;50.996;3.706;2023-07-09T06:14:07;47179.91;;;-146.65;77.45
57094;BME280;42970;50.996;3.706;2023-07-09T06:16:32;47181.91;;;-146.65;77.43
57094;BME280;42970;50.996;3.706;2023-07-09T06:18:58;47183.91;;;-146.65;76.84
57094;BME280;42970;50.996;3.706;2023-07-09T06:21:23;47181.91;;;-146.65;76.60
57094;BME280;42970;50.996;3.706;2023-07-09T06:23:48;47183.91;;;-146.65;76.60
57094;BME280;42970;50.996;3.706;2023-07-09T06:26:14;47185.91;;;-146.65;76.60
57094;BME280;42970;50.996;3.706;2023-07-09T06:28:39;47179.91;;;-146.65;75.24
57094;BME280;42970;50.996;3.706;2023-07-09T06:31:04;47177.91;;;-146.65;75.03
57094;BME280;42970;50.996;3.706;2023-07-09T06:33:30;47179.91;;;-146.65;75.15
57094;BME280;42970;50.996;3.706;2023-07-09T06:35:58;47175.91;;;-146.65;74.74
57094;BME280;42970;50.996;3.706;2023-07-09T06:38:25;47177.91;;;-146.65;73.87
57094;BME280;42970;50.996;3.706;2023-07-09T06:40:50;47183.91;;;-146.65;73.61
57094;BME280;42970;50.996;3.706;2023-07-09T06:43:16;47183.91;;;-146.65;72.84
57094;BME280;42970;50.996;3.706;2023-07-09T06:45:56;47183.91;;;-146.65;72.32
57094;BME280;42970;50.996;3.706;2023-07-09T06:48:23;47179.91;;;-146.65;71.70
57094;BME280;42970;50.996;3.706;2023-07-09T06:50:49;47185.91;;;-146.65;71.18
57094;BME280;42970;50.996;3.706;2023-07-09T06:53:15;47179.91;;;-146.65;71.41
57094;BME280;42970;50.996;3.706;2023-07-09T06:55:41;47177.91;;;-146.65;70.66
57094;BME280;42970;50.996;3.706;2023-07-09T06:58:07;47183.91;;;-146.65;71.56
57094;BME280;42970;50.996;3.706;2023-07-09T07:00:36;47179.91;;;-146.65;70.21
57094;BME280;42970;50.996;3.706;2023-07-09T07:03:01;47183.91;;;-146.65;70.64
57094;BME280;42970;50.996;3.706;2023-07-09T07:05:27;47177.91;;;-146.65;71.49
57094;BME280;42970;50.996;3.706;2023-07-09T07:07:52;47185.91;;;-146.65;71.08
57094;BME280;42970;50.996;3.706;2023-07-09T07:10:19;47181.91;;;-146.65;71.05
57094;BME280;42970;50.996;3.706;2023-07-09T07:12:47;47181.91;;;-146.65;70.91
57094;BME280;42970;50.996;3.706;2023-07-09T07:15:14;47181.91;;;-146.65;70.90
57094;BME280;42970;50.996;3.706;2023-07-09T07:17:41;47181.91;;;-146.65;71.19
57094;BME280;42970;50.996;3.706;2023-07-09T07:20:07;47181.91;;;-146.65;70.32
57094;BME280;42970;50.996;3.706;2023-07-09T07:22:34;47179.91;;;-146.65;69.76
57094;BME280;42970;50.996;3.706;2023-07-09T07:24:59;47179.91;;;-146.65;69.10
57094;BME280;42970;50.996;3.706;2023-07-09T07:27:24;47183.91;;;-146.65;68.81
57094;BME280;42970;50.996;3.706;2023-07-09T07:29:50;47183.91;;;-146.65;69.41
57094;BME280;42970;50.996;3.706;2023-07-09T07:32:15;47179.91;;;-146.65;68.54
57094;BME280;42970;50.996;3.706;2023-07-09T07:34:40;47183.91;;;-146.65;68.36
57094;BME280;42970;50.996;3.706;2023-07-09T07:37:06;47183.91;;;-146.65;68.14
57094;BME280;42970;50.996;3.706;2023-07-09T07:39:31;47181.91;;;-146.65;67.72
57094;BME280;42970;50.996;3.706;2023-07-09T07:41:57;47181.91;;;-146.65;66.20
57094;BME280;42970;50.996;3.706;2023-07-09T07:44:23;47183.91;;;-146.65;66.93
57094;BME280;42970;50.996;3.706;2023-07-09T07:46:48;47183.91;;;-146.65;66.54
57094;BME280;42970;50.996;3.706;2023-07-09T07:49:14;47181.91;;;-146.65;65.67
57094;BME280;42970;50.996;3.706;2023-07-09T07:51:39;47177.91;;;-146.65;63.86
57094;BME280;42970;50.996;3.706;2023-07-09T07:54:06;47177.91;;;-146.65;63.86
57094;BME280;42970;50.996;3.706;2023-07-09T07:56:31;47179.91;;;-146.65;64.13
57094;BME280;42970;50.996;3.706;2023-07-09T07:58:57;47183.91;;;-146.65;62.80
57094;BME280;42970;50.996;3.706;2023-07-09T08:01:23;47181.91;;;-146.65;62.26
57094;BME280;42970;50.996;3.706;2023-07-09T08:03:49;47177.91;;;-146.65;62.30
57094;BME280;42970;50.996;3.706;2023-07-09T08:06:14;47179.91;;;-146.65;60.44
57094;BME280;42970;50.996;3.706;2023-07-09T08:08:39;47183.91;;;-146.65;60.64
57094;BME280;42970;50.996;3.706;2023-07-09T08:11:06;47183.91;;;-146.65;59.68
57094;BME280;42970;50.996;3.706;2023-07-09T08:13:36;47183.91;;;-146.65;59.50
57094;BME280;42970;50.996;3.706;2023-07-09T08:16:03;47181.91;;;-146.65;59.00
57094;BME280;42970;50.996;3.706;2023-07-09T08:18:29;47181.91;;;-146.65;59.96
57094;BME280;42970;50.996;3.706;2023-07-09T08:20:54;47181.91;;;-146.65;58.34
57094;BME280;42970;50.996;3.706;2023-07-09T08:23:20;47181.91;;;-146.65;56.85
57094;BME280;42970;50.996;3.706;2023-07-09T08:25:53;47181.91;;;-146.65;55.81
57094;BME280;42970;50.996;3.706;2023-07-09T08:28:18;47181.91;;;-146.65;55.96
57094;BME280;42970;50.996;3.706;2023-07-09T08:30:44;47181.91;;;-146.65;56.56
57094;BME280;42970;50.996;3.706;2023-07-09T08:33:09;47183.91;;;-146.65;54.03
57094;BME280;42970;50.996;3.706;2023-07-09T08:35:35;47181.91;;;-146.65;54.70
57094;BME280;42970;50.996;3.706;2023-07-09T08:38:00;47181.91;;;-146.65;54.06
57094;BME280;42970;50.996;3.706;2023-07-09T08:40:26;47181.91;;;-146.65;54.29
57094;BME280;42970;50.996;3.706;2023-07-09T08:42:56;47173.91;;;-146.65;54.42
57094;BME280;42970;50.996;3.706;2023-07-09T08:45:34;47179.91;;;-146.65;53.06
57094;BME280;42970;50.996;3.706;2023-07-09T08:48:29;47181.91;;;-146.65;53.85
57094;BME280;42970;50.996;3.706;2023-07-09T08:50:59;47181.91;;;-146.65;54.03
57094;BME280;42970;50.996;3.706;2023-07-09T08:53:39;47181.91;;;-146.65;54.06
57094;BME280;42970;50.996;3.706;2023-07-09T08:56:09;47181.91;;;-146.65;53.56
57094;BME280;42970;50.996;3.706;2023-07-09T08:58:36;47181.91;;;-146.65;52.44
57094;BME280;42970;50.996;3.706;2023-07-09T09:01:05;47181.91;;;-146.65;50.79
57094;BME280;42970;50.996;3.706;2023-07-09T09:03:44;47185.91;;;-146.65;49.73
57094;BME280;42970;50.996;3.706;2023-07-09T09:06:14;47183.91;;;-146.65;49.87
57094;BME280;42970;50.996;3.706;2023-07-09T09:08:50;47183.91;;;-146.65;49.28
57094;BME280;42970;50.996;3.706;2023-07-09T09:14:33;47181.91;;;-146.65;47.35
57094;BME280;42970;50.996;3.706;2023-07-09T09:17:02;47179.91;;;-146.65;47.56
57094;BME280;42970;50.996;3.706;2023-07-09T09:19:31;47183.91;;;-146.65;48.43
57094;BME280;42970;50.996;3.706;2023-07-09T09:22:03;47181.91;;;-146.65;46.75
57094;BME280;42970;50.996;3.706;2023-07-09T09:24:36;47179.91;;;-146.65;47.81
57094;BME280;42970;50.996;3.706;2023-07-09T09:27:03;47185.91;;;-146.65;48.20
57094;BME280;42970;50.996;3.706;2023-07-09T09:29:29;47181.91;;;-146.65;47.83
57094;BME280;42970;50.996;3.706;2023-07-09T09:31:56;47181.91;;;-146.65;48.73
57094;BME280;42970;50.996;3.706;2023-07-09T09:34:26;47181.91;;;-146.65;48.81
57094;BME280;42970;50.996;3.706;2023-07-09T09:36:52;47181.91;;;-146.65;50.88
57094;BME280;42970;50.996;3.706;2023-07-09T09:39:18;47179.91;;;-146.65;49.73
57094;BME280;42970;50.996;3.706;2023-07-09T09:41:45;47181.91;;;-146.65;49.93
57094;BME280;42970;50.996;3.706;2023-07-09T09:44:23;47181.91;;;-146.65;50.53
57094;BME280;42970;50.996;3.706;2023-07-09T09:46:49;47181.91;;;-146.65;50.40
57094;BME280;42970;50.996;3.706;2023-07-09T09:49:16;47181.91;;;-146.65;50.50
57094;BME280;42970;50.996;3.706;2023-07-09T09:51:45;47181.91;;;-146.65;51.41
57094;BME280;42970;50.996;3.706;2023-07-09T09:54:18;47185.91;;;-146.65;53.88
57094;BME280;42970;50.996;3.706;2023-07-09T09:56:44;47175.91;;;-146.65;54.10
57094;BME280;42970;50.996;3.706;2023-07-09T09:59:18;47177.91;;;-146.65;53.60
57094;BME280;42970;50.996;3.706;2023-07-09T10:01:44;47181.91;;;-146.65;54.30
57094;BME280;42970;50.996;3.706;2023-07-09T10:04:16;47181.91;;;-146.65;55.25
57094;BME280;42970;50.996;3.706;2023-07-09T10:06:46;47181.91;;;-146.65;55.26
57094;BME280;42970;50.996;3.706;2023-07-09T10:09:50;47183.91;;;-146.65;55.52
57094;BME280;42970;50.996;3.706;2023-07-09T10:13:05;47185.91;;;-146.65;56.59
57094;BME280;42970;50.996;3.706;2023-07-09T10:15:29;47181.91;;;-146.65;58.17
57094;BME280;42970;50.996;3.706;2023-07-09T10:18:08;47179.91;;;-146.65;58.80
57094;BME280;42970;50.996;3.706;2023-07-09T10:20:42;47179.91;;;-146.65;59.55
57094;BME280;42970;50.996;3.706;2023-07-09T10:23:16;47179.91;;;-146.65;60.43
57094;BME280;42970;50.996;3.706;2023-07-09T10:39:37;47179.91;;;-146.65;62.69
57094;BME280;42970;50.996;3.706;2023-07-09T10:42:10;47183.91;;;-146.65;62.25
57094;BME280;42970;50.996;3.706;2023-07-09T10:44:41;47183.91;;;-146.65;62.08
57094;BME280;42970;50.996;3.706;2023-07-09T10:47:30;47181.91;;;-146.65;60.55
57094;BME280;42970;50.996;3.706;2023-07-09T10:49:58;47181.91;;;-146.65;61.24
57094;BME280;42970;50.996;3.706;2023-07-09T10:52:36;47179.91;;;-146.65;58.70
57094;BME280;42970;50.996;3.706;2023-07-09T10:57:50;47181.91;;;-146.65;53.80
57094;BME280;42970;50.996;3.706;2023-07-09T11:00:22;47183.91;;;-146.65;50.45
57094;BME280;42970;50.996;3.706;2023-07-09T11:02:59;47179.91;;;-146.65;50.71
57094;BME280;42970;50.996;3.706;2023-07-09T11:05:25;47183.91;;;-146.65;50.79
57094;BME280;42970;50.996;3.706;2023-07-09T11:08:02;47179.91;;;-146.65;50.92
57094;BME280;42970;50.996;3.706;2023-07-09T11:10:34;47181.91;;;-146.65;50.32
57094;BME280;42970;50.996;3.706;2023-07-09T11:13:05;47183.91;;;-146.65;50.58
57094;BME280;42970;50.996;3.706;2023-07-09T11:15:38;47181.91;;;-146.65;50.14
57094;BME280;42970;50.996;3.706;2023-07-09T11:18:07;47179.91;;;-146.65;50.61
57094;BME280;42970;50.996;3.706;2023-07-09T11:20:42;47183.91;;;-146.65;50.38
57094;BME280;42970;50.996;3.706;2023-07-09T11:23:23;47181.91;;;-146.65;49.43
57094;BME280;42970;50.996;3.706;2023-07-09T11:28:47;47183.91;;;-146.65;55.86
57094;BME280;42970;50.996;3.706;2023-07-09T11:31:39;47181.91;;;-146.65;58.04
57094;BME280;42970;50.996;3.706;2023-07-09T11:34:15;47179.91;;;-146.65;59.76
57094;BME280;42970;50.996;3.706;2023-07-09T11:39:41;47177.91;;;-146.65;62.83
57094;BME280;42970;50.996;3.706;2023-07-09T11:42:32;47179.91;;;-146.65;62.23
57094;BME280;42970;50.996;3.706;2023-07-09T11:45:13;47183.91;;;-146.65;62.85
57094;BME280;42970;50.996;3.706;2023-07-09T11:47:43;47179.91;;;-146.65;62.74
57094;BME280;42970;50.996;3.706;2023-07-09T11:50:26;47179.91;;;-146.65;62.47
57094;BME280;42970;50.996;3.706;2023-07-09T11:53:28;47183.91;;;-146.65;61.68
57094;BME280;42970;50.996;3.706;2023-07-09T11:55:58;47179.91;;;-146.65;61.74
57094;BME280;42970;50.996;3.706;2023-07-09T11:58:23;47179.91;;;-146.65;61.77
57094;BME280;42970;50.996;3.706;2023-07-09T12:00:50;47181.91;;;-146.65;61.86
57094;BME280;42970;50.996;3.706;2023-07-09T12:03:25;47177.91;;;-146.65;62.34
57094;BME280;42970;50.996;3.706;2023-07-09T12:05:54;47181.91;;;-146.65;62.18
57094;BME280;42970;50.996;3.706;2023-07-09T12:08:27;47179.91;;;-146.65;62.80
57094;BME280;42970;50.996;3.706;2023-07-09T12:10:54;47175.91;;;-146.65;62.79
57094;BME280;42970;50.996;3.706;2023-07-09T12:13:19;47181.91;;;-146.65;63.33
57094;BME280;42970;50.996;3.706;2023-07-09T12:15:44;47181.91;;;-146.65;64.20
57094;BME280;42970;50.996;3.706;2023-07-09T12:18:12;47179.91;;;-146.65;65.68
57094;BME280;42970;50.996;3.706;2023-07-09T12:20:38;47179.91;;;-146.65;65.81
57094;BME280;42970;50.996;3.706;2023-07-09T12:23:24;47181.91;;;-146.65;66.48
57094;BME280;42970;50.996;3.706;2023-07-09T12:25:51;47177.91;;;-146.65;67.79
57094;BME280;42970;50.996;3.706;2023-07-09T12:28:18;47175.91;;;-146.65;70.39
57094;BME280;42970;50.996;3.706;2023-07-09T12:30:47;47181.91;;;-146.65;72.46
57094;BME280;42970;50.996;3.706;2023-07-09T12:33:17;47175.91;;;-146.65;76.35
57094;BME280;42970;50.996;3.706;2023-07-09T12:35:43;47181.91;;;-146.65;75.27
57094;BME280;42970;50.996;3.706;2023-07-09T12:38:20;47181.91;;;-146.65;78.61
57094;BME280;42970;50.996;3.706;2023-07-09T12:40:47;47183.91;;;-146.65;75.27
57094;BME280;42970;50.996;3.706;2023-07-09T12:43:15;47181.91;;;-146.65;74.73
57094;BME280;42970;50.996;3.706;2023-07-09T12:45:42;47177.91;;;-146.65;78.60
57094;BME280;42970;50.996;3.706;2023-07-09T12:48:10;47177.91;;;-146.65;76.24
57094;BME280;42970;50.996;3.706;2023-07-09T12:50:37;47177.91;;;-146.65;80.44
57094;BME280;42970;50.996;3.706;2023-07-09T12:53:14;47177.91;;;-146.65;81.54
57094;BME280;42970;50.996;3.706;2023-07-09T12:55:45;47179.91;;;-146.65;83.56
57094;BME280;42970;50.996;3.706;2023-07-09T12:58:22;47179.91;;;-146.65;82.40
57094;BME280;42970;50.996;3.706;2023-07-09T13:00:49;47181.91;;;-146.65;82.20
57094;BME280;42970;50.996;3.706;2023-07-09T13:03:19;47183.91;;;-146.65;80.80
57094;BME280;42970;50.996;3.706;2023-07-09T13:06:06;47177.91;;;-146.65;82.22
57094;BME280;42970;50.996;3.706;2023-07-09T13:08:46;47179.91;;;-146.65;82.47
57094;BME280;42970;50.996;3.706;2023-07-09T13:11:16;47177.91;;;-146.65;82.74
57094;BME280;42970;50.996;3.706;2023-07-09T13:13:42;47181.91;;;-146.65;83.43
57094;BME280;42970;50.996;3.706;2023-07-09T13:16:19;47177.91;;;-146.65;84.12